Time;durP1;ratioP1;P1;durP2;ratioP2;P2;SDS_P1;SDS_P2;PMS_P1;PMS_P2;Temp;Humidity;BMP_temperature;BMP_pressure;BME280_temperature;BME280_humidity;BME280_pressure;Samples;Min_cycle;Max_cycle;Signal;HPM_P1;HPM_P2
2022/03/22 00:01:14;;;;;;;;;;;21.20;22.30;;;;;;5150599;27;19930;-59
2022/03/22 00:03:46;;;;;;;;;;;20.90;22.40;;;;;;5142520;27;19923;-59
2022/03/22 00:06:12;;;;;;;;;;;21.20;22.20;;;;;;5147803;27;19927;-57
2022/03/22 00:08:37;;;;;;;;;;;21.00;22.40;;;;;;5144967;27;20026;-55
2022/03/22 00:11:03;;;;;;;;;;;21.20;22.30;;;;;;5144819;27;20397;-57
2022/03/22 00:13:29;;;;;;;;;;;21.10;22.40;;;;;;5150249;27;20282;-59
2022/03/22 00:15:56;;;;;;;;;;;21.00;22.50;;;;;;5144595;27;20038;-59
2022/03/22 00:18:22;;;;;;;;;;;21.20;22.40;;;;;;5144968;27;20193;-59
2022/03/22 00:20:49;;;;;;;;;;;21.00;22.60;;;;;;5149982;27;19923;-55
2022/03/22 00:23:19;;;;;;;;;;;21.20;22.50;;;;;;5139884;27;20026;-57
2022/03/22 00:25:45;;;;;;;;;;;21.10;22.60;;;;;;5146498;27;19971;-58
2022/03/22 00:28:12;;;;;;;;;;;21.10;22.60;;;;;;5148403;27;19975;-49
2022/03/22 00:30:38;;;;;;;;;;;21.20;22.60;;;;;;5144861;27;20319;-59
2022/03/22 00:33:04;;;;;;;;;;;20.90;22.90;;;;;;5149695;27;19933;-59
2022/03/22 00:35:33;;;;;;;;;;;21.20;22.70;;;;;;5144350;27;19971;-60
2022/03/22 00:37:58;;;;;;;;;;;21.00;22.90;;;;;;5144015;27;20022;-54
2022/03/22 00:40:24;;;;;;;;;;;21.30;22.70;;;;;;5147969;27;19931;-59
2022/03/22 00:42:53;;;;;;;;;;;21.10;22.80;;;;;;5105018;27;20006;-57
2022/03/22 00:45:20;;;;;;;;;;;21.30;22.70;;;;;;5144227;27;20131;-58
2022/03/22 00:47:47;;;;;;;;;;;21.10;22.90;;;;;;5149796;27;20297;-58
2022/03/22 00:50:13;;;;;;;;;;;21.20;22.80;;;;;;5144176;27;20457;-60
2022/03/22 00:52:39;;;;;;;;;;;21.10;22.80;;;;;;5149670;27;19927;-59
2022/03/22 00:55:05;;;;;;;;;;;21.20;22.50;;;;;;5144307;27;19987;-58
2022/03/22 00:57:33;;;;;;;;;;;21.00;22.70;;;;;;5125634;27;20417;-60
2022/03/22 01:00:03;;;;;;;;;;;21.20;22.50;;;;;;5145138;27;19923;-59
2022/03/22 01:02:29;;;;;;;;;;;21.10;22.40;;;;;;5143215;27;20010;-53
2022/03/22 01:04:56;;;;;;;;;;;21.20;22.30;;;;;;5143966;27;19927;-60
2022/03/22 01:07:22;;;;;;;;;;;21.10;22.40;;;;;;5149292;27;19931;-53
2022/03/22 01:09:48;;;;;;;;;;;21.20;22.20;;;;;;5143649;27;19923;-60
2022/03/22 01:12:15;;;;;;;;;;;21.10;22.40;;;;;;5144907;27;19927;-58
2022/03/22 01:14:42;;;;;;;;;;;21.20;22.30;;;;;;5148816;27;20363;-59
2022/03/22 01:17:08;;;;;;;;;;;21.10;22.30;;;;;;5142168;27;20385;-53
2022/03/22 01:19:34;;;;;;;;;;;21.30;22.00;;;;;;5126423;27;19923;-59
2022/03/22 01:22:00;;;;;;;;;;;21.10;22.10;;;;;;5143568;27;19929;-51
2022/03/22 01:24:26;;;;;;;;;;;21.20;22.00;;;;;;5125017;27;19923;-58
2022/03/22 01:26:52;;;;;;;;;;;20.90;22.20;;;;;;5148977;27;19927;-60
2022/03/22 01:29:18;;;;;;;;;;;21.10;21.90;;;;;;5143427;27;19927;-58
2022/03/22 01:31:44;;;;;;;;;;;21.10;21.90;;;;;;5124838;27;19923;-57
2022/03/22 01:34:10;;;;;;;;;;;21.10;21.90;;;;;;5148525;27;19923;-59
2022/03/22 01:36:36;;;;;;;;;;;21.10;21.80;;;;;;5139255;27;19975;-59
2022/03/22 01:39:02;;;;;;;;;;;21.10;21.70;;;;;;5128341;27;19923;-59
2022/03/22 01:41:28;;;;;;;;;;;21.10;21.60;;;;;;5124746;27;19930;-58
2022/03/22 01:43:53;;;;;;;;;;;21.20;21.50;;;;;;5124412;27;19970;-58
2022/03/22 01:46:20;;;;;;;;;;;21.10;21.60;;;;;;5148502;27;19930;-58
2022/03/22 01:48:46;;;;;;;;;;;21.20;21.50;;;;;;5143079;27;20021;-58
2022/03/22 01:51:12;;;;;;;;;;;21.20;21.50;;;;;;5142778;27;20717;-60
2022/03/22 01:53:37;;;;;;;;;;;21.00;21.70;;;;;;5147819;27;19930;-59
2022/03/22 01:56:03;;;;;;;;;;;21.20;21.40;;;;;;5119689;27;19927;-59
2022/03/22 01:58:29;;;;;;;;;;;21.00;21.50;;;;;;5148113;27;19930;-60
2022/03/22 02:05:51;;;;;;;;;;;21.10;21.40;;;;;;5142817;27;20522;-60
2022/03/22 02:06:29;;;;;;;;;;;21.30;21.80;;;;;;5142046;27;19927;-56
2022/03/22 02:08:54;;;;;;;;;;;21.10;22.30;;;;;;5129440;27;19930;-59
2022/03/22 02:11:20;;;;;;;;;;;21.20;22.20;;;;;;5142457;27;19923;-58
2022/03/22 02:13:46;;;;;;;;;;;21.20;22.00;;;;;;5144319;27;19927;-54
2022/03/22 02:16:12;;;;;;;;;;;20.90;22.10;;;;;;5141577;27;19931;-60
2022/03/22 02:18:40;;;;;;;;;;;21.00;22.10;;;;;;5142471;27;20418;-57
2022/03/22 02:21:05;;;;;;;;;;;21.10;21.90;;;;;;5148058;27;19946;-59
2022/03/22 02:23:50;;;;;;;;;;;21.10;21.90;;;;;;5123978;27;19966;-52
2022/03/22 02:26:16;;;;;;;;;;;21.00;21.90;;;;;;5142279;27;19946;-58
2022/03/22 02:28:43;;;;;;;;;;;21.10;22.00;;;;;;5147842;27;20362;-60
2022/03/22 02:31:09;;;;;;;;;;;21.20;21.90;;;;;;5141329;27;20281;-60
2022/03/22 02:33:35;;;;;;;;;;;21.00;22.10;;;;;;5138245;27;19931;-59
2022/03/22 02:36:01;;;;;;;;;;;21.10;21.90;;;;;;5147953;27;20321;-53
2022/03/22 02:38:26;;;;;;;;;;;21.30;21.80;;;;;;5142198;27;20432;-60
2022/03/22 02:40:52;;;;;;;;;;;21.00;22.10;;;;;;5147804;27;20381;-59
2022/03/22 02:43:18;;;;;;;;;;;21.30;21.80;;;;;;5142398;27;19945;-60
2022/03/22 02:45:44;;;;;;;;;;;21.10;22.00;;;;;;5142000;27;20302;-58
2022/03/22 02:48:11;;;;;;;;;;;21.20;21.90;;;;;;5147470;27;20026;-59
2022/03/22 02:50:36;;;;;;;;;;;21.00;22.00;;;;;;5138560;27;20267;-57
2022/03/22 02:53:02;;;;;;;;;;;21.10;22.00;;;;;;5141031;27;20172;-53
2022/03/22 02:55:28;;;;;;;;;;;21.10;22.00;;;;;;5147701;27;20275;-57
2022/03/22 02:57:54;;;;;;;;;;;21.00;22.10;;;;;;5142064;27;20050;-57
2022/03/22 03:00:20;;;;;;;;;;;21.30;21.80;;;;;;5147717;27;19927;-59
2022/03/22 03:02:47;;;;;;;;;;;21.00;22.00;;;;;;5123783;27;19931;-60
2022/03/22 03:05:13;;;;;;;;;;;21.20;21.90;;;;;;5142176;27;19924;-54
2022/03/22 03:07:38;;;;;;;;;;;21.10;21.90;;;;;;5146914;27;19991;-58
2022/03/22 03:10:05;;;;;;;;;;;21.10;21.90;;;;;;5137316;27;19923;-59
2022/03/22 03:12:30;;;;;;;;;;;21.30;21.80;;;;;;5141866;27;20010;-58
2022/03/22 03:14:56;;;;;;;;;;;21.20;21.80;;;;;;5147398;27;20385;-58
2022/03/22 03:17:22;;;;;;;;;;;21.20;21.70;;;;;;5142099;27;19983;-57
2022/03/22 03:19:48;;;;;;;;;;;21.10;21.80;;;;;;5150457;27;19931;-58
2022/03/22 03:22:14;;;;;;;;;;;21.10;21.80;;;;;;5145959;27;19930;-58
2022/03/22 03:24:40;;;;;;;;;;;21.20;21.70;;;;;;5127289;27;20277;-60
2022/03/22 03:27:05;;;;;;;;;;;21.10;21.80;;;;;;5148711;27;19924;-56
2022/03/22 03:29:31;;;;;;;;;;;21.20;21.70;;;;;;5142892;27;20370;-60
2022/03/22 03:31:57;;;;;;;;;;;21.10;21.60;;;;;;5145628;27;20331;-59
2022/03/22 03:34:23;;;;;;;;;;;21.20;21.50;;;;;;5148874;27;20217;-60
2022/03/22 03:36:48;;;;;;;;;;;21.10;21.50;;;;;;5145420;27;20337;-57
2022/03/22 03:39:15;;;;;;;;;;;21.20;21.40;;;;;;5149004;27;19930;-57
2022/03/22 03:41:53;;;;;;;;;;;21.10;21.40;;;;;;5148478;27;19923;-60
2022/03/22 03:47:07;;;;;;;;;;;21.20;21.30;;;;;;5140887;27;19964;-57
2022/03/22 03:49:37;;;;;;;;;;;21.20;21.30;;;;;;5150692;27;19924;-56
2022/03/22 03:52:07;;;;;;;;;;;21.20;21.30;;;;;;5145399;27;19927;-61
2022/03/22 03:54:33;;;;;;;;;;;21.00;21.40;;;;;;5150686;27;19958;-58
2022/03/22 03:56:58;;;;;;;;;;;21.20;21.30;;;;;;5145237;27;19929;-59
2022/03/22 03:59:24;;;;;;;;;;;21.10;21.30;;;;;;5145062;27;20362;-59
2022/03/22 04:01:50;;;;;;;;;;;21.20;21.30;;;;;;5150497;27;19927;-57
2022/03/22 04:04:16;;;;;;;;;;;21.10;21.30;;;;;;5142405;27;19973;-60
2022/03/22 04:06:41;;;;;;;;;;;21.30;21.20;;;;;;5142496;27;20191;-60
2022/03/22 04:09:07;;;;;;;;;;;21.20;21.30;;;;;;5150506;27;19927;-59
2022/03/22 04:11:33;;;;;;;;;;;21.00;21.50;;;;;;5144920;27;19923;-59
2022/03/22 04:13:59;;;;;;;;;;;21.10;21.40;;;;;;5150359;27;19923;-59
2022/03/22 04:16:25;;;;;;;;;;;21.20;21.30;;;;;;5144995;27;19923;-58
2022/03/22 04:18:50;;;;;;;;;;;21.30;21.30;;;;;;5144719;27;20022;-59
2022/03/22 04:21:16;;;;;;;;;;;21.10;21.50;;;;;;5149647;27;19938;-58
2022/03/22 04:23:42;;;;;;;;;;;21.10;21.60;;;;;;5139690;27;19923;-60
2022/03/22 04:26:08;;;;;;;;;;;21.10;21.60;;;;;;5144339;27;19938;-59
2022/03/22 04:34:02;;;;;;;;;;;21.10;21.70;;;;;;5144325;27;19929;-60
2022/03/22 04:36:29;;;;;;;;;;;21.10;21.80;;;;;;5149933;27;19930;-59
2022/03/22 04:38:55;;;;;;;;;;;21.20;21.70;;;;;;5144442;27;20382;-58
2022/03/22 04:41:20;;;;;;;;;;;21.10;21.80;;;;;;5141668;27;19966;-59
2022/03/22 04:43:46;;;;;;;;;;;21.10;21.80;;;;;;5128533;27;19923;-61
2022/03/22 04:46:18;;;;;;;;;;;21.10;21.90;;;;;;5125641;27;19927;-61
2022/03/22 04:48:45;;;;;;;;;;;21.20;21.90;;;;;;5149780;27;20451;-61
2022/03/22 04:56:43;;;;;;;;;;;21.20;21.80;;;;;;5147182;27;20310;-56
2022/03/22 04:59:09;;;;;;;;;;;21.10;21.80;;;;;;5147045;27;19929;-58
2022/03/22 05:01:35;;;;;;;;;;;21.20;21.80;;;;;;5140089;27;19927;-55
2022/03/22 05:04:01;;;;;;;;;;;21.20;21.80;;;;;;5149251;27;19934;-60
2022/03/22 05:06:26;;;;;;;;;;;21.00;21.90;;;;;;5143736;27;19948;-59
2022/03/22 05:08:55;;;;;;;;;;;21.20;21.80;;;;;;5143997;27;20401;-57
2022/03/22 05:11:21;;;;;;;;;;;21.30;21.70;;;;;;5149305;27;19999;-59
2022/03/22 05:13:47;;;;;;;;;;;21.20;21.80;;;;;;5141725;27;19927;-60
2022/03/22 05:16:13;;;;;;;;;;;21.10;21.80;;;;;;5108048;27;19938;-60
2022/03/22 05:18:39;;;;;;;;;;;21.20;21.90;;;;;;5145600;27;19923;-59
2022/03/22 05:21:06;;;;;;;;;;;21.20;21.80;;;;;;5141448;27;19930;-59
2022/03/22 05:23:34;;;;;;;;;;;21.10;21.90;;;;;;5149293;27;20310;-56
2022/03/22 05:26:00;;;;;;;;;;;21.00;22.00;;;;;;5143558;27;20334;-59
2022/03/22 05:28:26;;;;;;;;;;;21.00;22.00;;;;;;5143568;27;19923;-58
2022/03/22 05:30:52;;;;;;;;;;;21.00;21.90;;;;;;5130705;27;19933;-60
2022/03/22 05:33:18;;;;;;;;;;;21.10;21.90;;;;;;5143346;27;20255;-59
2022/03/22 05:35:43;;;;;;;;;;;21.20;21.80;;;;;;5142545;27;20135;-57
2022/03/22 05:38:09;;;;;;;;;;;21.20;21.80;;;;;;5144117;27;19930;-59
2022/03/22 05:40:35;;;;;;;;;;;21.10;21.90;;;;;;5142606;27;19923;-61
2022/03/22 05:43:01;;;;;;;;;;;21.10;21.90;;;;;;5112959;27;19931;-58
2022/03/22 05:45:26;;;;;;;;;;;21.20;21.90;;;;;;5143349;27;20366;-60
2022/03/22 05:47:53;;;;;;;;;;;21.20;21.90;;;;;;5143346;27;20286;-59
2022/03/22 05:50:19;;;;;;;;;;;21.20;22.00;;;;;;5148395;27;20427;-59
2022/03/22 05:52:45;;;;;;;;;;;21.20;21.90;;;;;;5142903;27;20019;-58
2022/03/22 05:55:11;;;;;;;;;;;21.20;22.00;;;;;;5140880;27;20189;-59
2022/03/22 05:57:37;;;;;;;;;;;21.20;22.00;;;;;;5144912;27;20018;-59
2022/03/22 06:00:04;;;;;;;;;;;21.20;22.10;;;;;;5142957;27;20013;-58
2022/03/22 06:02:30;;;;;;;;;;;21.20;22.00;;;;;;5144998;27;20013;-58
2022/03/22 06:04:56;;;;;;;;;;;21.30;22.00;;;;;;5146303;27;19930;-59
2022/03/22 06:07:22;;;;;;;;;;;21.20;22.10;;;;;;5142718;27;19923;-60
2022/03/22 06:09:48;;;;;;;;;;;21.20;22.20;;;;;;5148120;27;19931;-57
2022/03/22 06:12:15;;;;;;;;;;;21.10;22.20;;;;;;5142537;27;19930;-55
2022/03/22 06:14:41;;;;;;;;;;;21.20;22.20;;;;;;5119723;27;20019;-58
2022/03/22 06:17:07;;;;;;;;;;;21.20;22.20;;;;;;5147118;27;19973;-58
2022/03/22 06:19:33;;;;;;;;;;;21.10;22.20;;;;;;5142764;27;19930;-58
2022/03/22 06:21:59;;;;;;;;;;;21.10;22.30;;;;;;5142374;27;19926;-60
2022/03/22 06:24:24;;;;;;;;;;;21.10;22.10;;;;;;5129494;27;19974;-55
2022/03/22 06:26:50;;;;;;;;;;;21.20;22.00;;;;;;5142477;27;19967;-59
2022/03/22 06:29:16;;;;;;;;;;;21.20;21.90;;;;;;5147898;27;19922;-61
2022/03/22 06:31:44;;;;;;;;;;;21.10;22.00;;;;;;5141294;27;19967;-60
2022/03/22 06:34:09;;;;;;;;;;;21.20;21.80;;;;;;5137804;27;19923;-60
2022/03/22 06:36:35;;;;;;;;;;;21.20;21.70;;;;;;5129572;27;19931;-56
2022/03/22 06:39:01;;;;;;;;;;;21.10;21.80;;;;;;5142599;27;19931;-60
2022/03/22 06:41:27;;;;;;;;;;;21.10;21.80;;;;;;5142290;27;20076;-61
2022/03/22 06:43:52;;;;;;;;;;;21.20;21.70;;;;;;5147551;27;20430;-60
2022/03/22 06:46:18;;;;;;;;;;;21.20;21.70;;;;;;5142229;27;19934;-59
2022/03/22 06:48:44;;;;;;;;;;;21.20;21.80;;;;;;5147678;27;19927;-60
2022/03/22 06:51:10;;;;;;;;;;;21.10;21.80;;;;;;5138960;27;19930;-58
2022/03/22 06:53:36;;;;;;;;;;;21.20;21.80;;;;;;5143320;27;20350;-59
2022/03/22 06:56:01;;;;;;;;;;;21.30;21.70;;;;;;5151965;27;19923;-58
2022/03/22 06:58:29;;;;;;;;;;;21.10;21.70;;;;;;5146291;27;19927;-56
2022/03/22 07:00:55;;;;;;;;;;;21.10;21.70;;;;;;5146273;27;20310;-57
2022/03/22 07:03:21;;;;;;;;;;;21.30;21.70;;;;;;5151825;27;19944;-58
2022/03/22 07:05:46;;;;;;;;;;;21.20;21.80;;;;;;5146304;27;19966;-56
2022/03/22 07:08:12;;;;;;;;;;;21.20;21.70;;;;;;5150387;27;19948;-60
2022/03/22 07:10:38;;;;;;;;;;;21.10;21.80;;;;;;5142564;27;19931;-60
2022/03/22 07:13:05;;;;;;;;;;;21.20;21.70;;;;;;5145523;27;19927;-55
2022/03/22 07:15:35;;;;;;;;;;;21.20;21.80;;;;;;5132813;27;19931;-60
2022/03/22 07:18:05;;;;;;;;;;;20.90;22.00;;;;;;5146162;27;19923;-57
2022/03/22 07:20:31;;;;;;;;;;;21.20;22.00;;;;;;5146013;27;20282;-58
2022/03/22 07:22:57;;;;;;;;;;;21.10;22.10;;;;;;5151175;27;20449;-58
2022/03/22 07:25:22;;;;;;;;;;;21.20;22.10;;;;;;5127466;27;19967;-59
2022/03/22 07:27:49;;;;;;;;;;;21.20;22.20;;;;;;5144310;27;19978;-57
2022/03/22 07:30:15;;;;;;;;;;;21.10;22.30;;;;;;5147996;27;19924;-60
2022/03/22 07:32:45;;;;;;;;;;;21.20;22.20;;;;;;5145782;27;19931;-59
2022/03/22 07:35:11;;;;;;;;;;;21.20;22.10;;;;;;5151208;27;19939;-57
2022/03/22 07:37:36;;;;;;;;;;;21.20;22.20;;;;;;5145544;27;20362;-59
2022/03/22 07:40:03;;;;;;;;;;;21.10;22.20;;;;;;5145750;27;19927;-59
2022/03/22 07:42:29;;;;;;;;;;;21.20;22.10;;;;;;5151237;27;20014;-55
2022/03/22 07:44:55;;;;;;;;;;;21.20;22.10;;;;;;5126968;27;20382;-60
2022/03/22 07:47:21;;;;;;;;;;;21.10;22.10;;;;;;5141889;27;20351;-56
2022/03/22 07:55:16;;;;;;;;;;;21.20;21.80;;;;;;5145243;27;19927;-59
2022/03/22 07:57:42;;;;;;;;;;;21.20;21.80;;;;;;5150760;27;20358;-55
2022/03/22 08:00:08;;;;;;;;;;;21.20;21.80;;;;;;5145138;27;20344;-60
2022/03/22 08:02:36;;;;;;;;;;;21.10;21.80;;;;;;5143974;27;19956;-55
2022/03/22 08:05:06;;;;;;;;;;;21.10;21.80;;;;;;5128444;27;19950;-57
2022/03/22 08:07:32;;;;;;;;;;;21.20;21.80;;;;;;5142524;27;19923;-57
2022/03/22 08:09:58;;;;;;;;;;;21.20;21.80;;;;;;5150439;27;19941;-58
2022/03/22 08:12:24;;;;;;;;;;;21.20;21.80;;;;;;5144934;27;19923;-58
2022/03/22 08:14:52;;;;;;;;;;;21.00;21.90;;;;;;5145096;27;19927;-57
2022/03/22 08:17:18;;;;;;;;;;;21.20;21.70;;;;;;5150630;27;19971;-58
2022/03/22 08:19:44;;;;;;;;;;;21.10;21.90;;;;;;5144733;27;19936;-53
2022/03/22 08:22:10;;;;;;;;;;;21.20;21.90;;;;;;5144544;27;20189;-60
2022/03/22 08:24:35;;;;;;;;;;;21.00;22.10;;;;;;5145390;27;19934;-58
2022/03/22 08:27:01;;;;;;;;;;;21.20;21.80;;;;;;5144338;27;19938;-59
2022/03/22 08:29:27;;;;;;;;;;;20.90;22.20;;;;;;5150116;27;19930;-55
2022/03/22 08:31:53;;;;;;;;;;;21.10;21.90;;;;;;5145075;27;19930;-57
2022/03/22 08:34:19;;;;;;;;;;;21.10;22.00;;;;;;5144519;27;20282;-58
2022/03/22 08:36:45;;;;;;;;;;;21.10;22.10;;;;;;5150264;27;20014;-57
2022/03/22 08:39:11;;;;;;;;;;;21.10;22.20;;;;;;5144454;27;19936;-58
2022/03/22 08:41:36;;;;;;;;;;;21.10;22.20;;;;;;5143316;27;20145;-55
2022/03/22 08:44:02;;;;;;;;;;;21.00;22.20;;;;;;5145677;27;19931;-60
2022/03/22 08:46:28;;;;;;;;;;;21.20;22.10;;;;;;5145289;27;19923;-60
2022/03/22 08:48:55;;;;;;;;;;;21.00;22.40;;;;;;5147576;27;20479;-54
2022/03/22 08:51:21;;;;;;;;;;;21.20;22.30;;;;;;5147071;27;20013;-58
2022/03/22 08:53:47;;;;;;;;;;;21.00;22.40;;;;;;5144290;27;20018;-55
2022/03/22 08:56:13;;;;;;;;;;;21.20;22.30;;;;;;5149634;27;20327;-58
2022/03/22 08:58:39;;;;;;;;;;;21.30;22.40;;;;;;5143992;27;19924;-57
2022/03/22 09:01:06;;;;;;;;;;;21.00;22.60;;;;;;5140022;27;19943;-57
2022/03/22 09:03:32;;;;;;;;;;;21.20;22.40;;;;;;5148167;27;19967;-56
2022/03/22 09:06:12;;;;;;;;;;;20.90;22.60;;;;;;5143858;27;19970;-59
2022/03/22 09:08:38;;;;;;;;;;;21.20;22.50;;;;;;5144356;27;19927;-55
2022/03/22 09:11:04;;;;;;;;;;;21.10;22.70;;;;;;5149360;27;19974;-54
2022/03/22 09:13:30;;;;;;;;;;;21.30;22.50;;;;;;5108225;27;20010;-60
2022/03/22 09:15:56;;;;;;;;;;;20.90;22.80;;;;;;5148485;27;20030;-55
2022/03/22 09:18:22;;;;;;;;;;;21.30;22.50;;;;;;5143778;27;20357;-58
2022/03/22 09:20:48;;;;;;;;;;;21.00;22.70;;;;;;5139312;27;19923;-57
2022/03/22 09:23:14;;;;;;;;;;;21.20;22.60;;;;;;5130370;27;19992;-60
2022/03/22 09:25:40;;;;;;;;;;;20.90;22.80;;;;;;5143565;27;19975;-58
2022/03/22 09:28:06;;;;;;;;;;;21.10;22.60;;;;;;5143405;27;19923;-60
2022/03/22 09:30:32;;;;;;;;;;;21.00;22.80;;;;;;5148764;27;19934;-59
2022/03/22 09:32:58;;;;;;;;;;;21.10;22.70;;;;;;5143464;27;20443;-60
2022/03/22 09:35:24;;;;;;;;;;;21.00;22.90;;;;;;5145781;27;19927;-56
2022/03/22 09:37:50;;;;;;;;;;;21.30;22.70;;;;;;5143771;27;20018;-59
2022/03/22 09:40:17;;;;;;;;;;;20.90;23.10;;;;;;5123061;27;19931;-55
2022/03/22 09:42:43;;;;;;;;;;;21.20;22.80;;;;;;5148843;27;19930;-57
2022/03/22 09:45:13;;;;;;;;;;;21.20;22.80;;;;;;5143302;27;20030;-52
2022/03/22 09:47:41;;;;;;;;;;;21.10;22.90;;;;;;5143257;27;19939;-54
2022/03/22 09:50:08;;;;;;;;;;;21.10;23.10;;;;;;5148784;27;19923;-58
2022/03/22 09:52:34;;;;;;;;;;;21.20;23.10;;;;;;5143122;27;20017;-59
2022/03/22 09:55:00;;;;;;;;;;;21.10;23.40;;;;;;5142330;27;19923;-61
2022/03/22 09:57:26;;;;;;;;;;;21.30;23.20;;;;;;5143675;27;19923;-60
2022/03/22 09:59:51;;;;;;;;;;;21.00;23.50;;;;;;5142919;27;19927;-60
2022/03/22 10:02:25;;;;;;;;;;;21.30;23.20;;;;;;5148561;27;19923;-58
2022/03/22 10:04:51;;;;;;;;;;;21.10;23.40;;;;;;5145139;27;20018;-56
2022/03/22 10:07:17;;;;;;;;;;;21.10;23.60;;;;;;5142682;27;19927;-60
2022/03/22 10:09:49;;;;;;;;;;;21.20;23.50;;;;;;5148332;27;19927;-58
2022/03/22 10:12:24;;;;;;;;;;;21.10;23.60;;;;;;5142613;27;20029;-60
2022/03/22 10:14:50;;;;;;;;;;;21.20;23.20;;;;;;5139034;27;19927;-57
2022/03/22 10:17:17;;;;;;;;;;;21.20;23.00;;;;;;5146259;27;19927;-56
2022/03/22 10:19:44;;;;;;;;;;;21.00;23.00;;;;;;5142710;27;19933;-56
2022/03/22 10:22:10;;;;;;;;;;;21.30;22.80;;;;;;5143349;27;20084;-55
2022/03/22 10:24:43;;;;;;;;;;;21.00;22.90;;;;;;5148296;27;19930;-58
2022/03/22 10:27:19;;;;;;;;;;;21.30;22.70;;;;;;5142187;27;20275;-53
2022/03/22 10:29:45;;;;;;;;;;;21.10;22.90;;;;;;5142723;27;19923;-59
2022/03/22 10:32:11;;;;;;;;;;;21.30;22.80;;;;;;5146885;27;19937;-60
2022/03/22 10:34:36;;;;;;;;;;;21.00;22.70;;;;;;5138113;27;20017;-59
2022/03/22 10:37:02;;;;;;;;;;;21.30;22.30;;;;;;5147971;27;20374;-58
2022/03/22 10:39:28;;;;;;;;;;;21.00;22.40;;;;;;5142365;27;20392;-61
2022/03/22 10:42:01;;;;;;;;;;;21.30;22.20;;;;;;5142465;27;19934;-53
2022/03/22 10:44:28;;;;;;;;;;;21.00;22.50;;;;;;5147968;27;19927;-58
2022/03/22 10:46:54;;;;;;;;;;;21.30;22.30;;;;;;5142332;27;19934;-53
2022/03/22 10:49:20;;;;;;;;;;;21.00;22.50;;;;;;5142997;27;20265;-59
2022/03/22 10:51:46;;;;;;;;;;;21.30;22.30;;;;;;5143962;27;19930;-59
2022/03/22 10:54:15;;;;;;;;;;;20.90;22.30;;;;;;5140481;27;19929;-61
2022/03/22 10:56:56;;;;;;;;;;;21.20;22.10;;;;;;5144488;27;19937;-55
2022/03/22 10:59:23;;;;;;;;;;;21.00;22.30;;;;;;5147819;27;19929;-61
2022/03/22 11:01:49;;;;;;;;;;;21.30;22.20;;;;;;5142119;27;19945;-58
2022/03/22 11:04:15;;;;;;;;;;;21.20;22.00;;;;;;5129123;27;19926;-58
2022/03/22 11:06:41;;;;;;;;;;;21.20;21.90;;;;;;5142659;27;19930;-57
2022/03/22 11:09:07;;;;;;;;;;;21.20;22.10;;;;;;5122693;27;20297;-52
2022/03/22 11:11:33;;;;;;;;;;;21.00;22.20;;;;;;5142615;27;19931;-58
2022/03/22 11:13:58;;;;;;;;;;;21.30;22.00;;;;;;5141955;27;19950;-54
2022/03/22 11:16:26;;;;;;;;;;;21.10;22.20;;;;;;5142262;27;20101;-57
2022/03/22 11:18:51;;;;;;;;;;;21.30;22.20;;;;;;5147235;27;19923;-56
2022/03/22 11:21:18;;;;;;;;;;;21.00;21.80;;;;;;5141659;27;20459;-58
2022/03/22 11:23:44;;;;;;;;;;;21.20;21.60;;;;;;5145233;27;19923;-57
2022/03/22 11:26:11;;;;;;;;;;;21.00;21.70;;;;;;5145132;27;20081;-61
2022/03/22 11:28:38;;;;;;;;;;;21.20;21.50;;;;;;5138135;27;20394;-57
2022/03/22 11:31:05;;;;;;;;;;;21.10;21.60;;;;;;5145606;27;20339;-59
2022/03/22 11:36:16;;;;;;;;;;;21.20;21.50;;;;;;5141989;27;19930;-61
2022/03/22 11:38:46;;;;;;;;;;;21.30;21.60;;;;;;5147527;27;20286;-58
2022/03/22 11:44:23;;;;;;;;;;;21.20;21.80;;;;;;5145030;27;19930;-58
2022/03/22 11:47:07;;;;;;;;;;;21.00;22.00;;;;;;5147834;27;19930;-60
2022/03/22 11:49:52;;;;;;;;;;;21.20;21.90;;;;;;5149178;27;20371;-58
2022/03/22 11:52:19;;;;;;;;;;;21.20;22.00;;;;;;5145534;27;19991;-60
2022/03/22 11:54:54;;;;;;;;;;;21.30;21.60;;;;;;5147449;27;19923;-58
2022/03/22 11:57:20;;;;;;;;;;;21.10;21.80;;;;;;5151257;27;19930;-58
2022/03/22 11:59:47;;;;;;;;;;;21.10;21.70;;;;;;5145461;27;19923;-61
2022/03/22 12:02:15;;;;;;;;;;;21.10;21.70;;;;;;5150746;27;20366;-58
2022/03/22 12:04:41;;;;;;;;;;;21.20;21.60;;;;;;5143614;27;20421;-60
2022/03/22 12:07:08;;;;;;;;;;;21.20;21.40;;;;;;5141408;27;20365;-62
2022/03/22 12:09:34;;;;;;;;;;;21.20;21.40;;;;;;5150650;27;19929;-58
2022/03/22 12:12:01;;;;;;;;;;;21.20;21.30;;;;;;5127278;27;19923;-61
2022/03/22 12:14:28;;;;;;;;;;;21.10;21.40;;;;;;5145263;27;20356;-60
2022/03/22 12:16:57;;;;;;;;;;;21.30;21.30;;;;;;5150305;27;19923;-60
2022/03/22 12:19:26;;;;;;;;;;;21.10;21.30;;;;;;5145038;27;20402;-61
2022/03/22 12:21:53;;;;;;;;;;;21.30;21.20;;;;;;5145828;27;19946;-55
2022/03/22 12:24:20;;;;;;;;;;;21.10;21.40;;;;;;5145513;27;19923;-56
2022/03/22 12:26:46;;;;;;;;;;;21.10;21.60;;;;;;5144085;27;19926;-60
2022/03/22 12:29:12;;;;;;;;;;;21.20;21.60;;;;;;5150306;27;20362;-56
2022/03/22 12:31:46;;;;;;;;;;;21.10;21.40;;;;;;5145264;27;19933;-61
2022/03/22 12:34:11;;;;;;;;;;;21.30;21.20;;;;;;5144510;27;20008;-60
2022/03/22 12:36:38;;;;;;;;;;;21.20;21.20;;;;;;5149822;27;20366;-58
2022/03/22 12:39:04;;;;;;;;;;;21.00;21.50;;;;;;5144673;27;20417;-60
2022/03/22 12:41:30;;;;;;;;;;;21.30;21.50;;;;;;5143536;27;19923;-56
2022/03/22 12:43:56;;;;;;;;;;;21.10;21.80;;;;;;5145948;27;19926;-60
2022/03/22 12:46:22;;;;;;;;;;;21.30;21.90;;;;;;5125947;27;20010;-59
2022/03/22 12:48:50;;;;;;;;;;;21.10;21.80;;;;;;5149789;27;19923;-51
2022/03/22 12:51:16;;;;;;;;;;;21.10;21.40;;;;;;5145839;27;19930;-61
2022/03/22 12:53:42;;;;;;;;;;;21.30;21.10;;;;;;5144054;27;19923;-58
2022/03/22 12:56:14;;;;;;;;;;;21.10;21.20;;;;;;5149457;27;19936;-59
2022/03/22 12:58:40;;;;;;;;;;;21.20;21.30;;;;;;5144442;27;19942;-61
2022/03/22 13:01:06;;;;;;;;;;;21.20;21.40;;;;;;5140478;27;20010;-59
2022/03/22 13:03:32;;;;;;;;;;;21.30;21.50;;;;;;5145917;27;20298;-60
2022/03/22 13:05:58;;;;;;;;;;;21.20;21.60;;;;;;5143913;27;19938;-60
2022/03/22 13:08:24;;;;;;;;;;;21.10;21.60;;;;;;5143974;27;19927;-59
2022/03/22 13:16:28;;;;;;;;;;;21.30;21.60;;;;;;5143472;27;20158;-60
2022/03/22 13:18:57;;;;;;;;;;;21.20;21.60;;;;;;5146723;27;20456;-60
2022/03/22 13:21:23;;;;;;;;;;;21.20;21.60;;;;;;5140316;27;19929;-59
2022/03/22 13:24:18;;;;;;;;;;;21.30;21.70;;;;;;5125726;27;20301;-59
2022/03/22 13:26:57;;;;;;;;;;;21.20;21.40;;;;;;5126030;27;19953;-60
2022/03/22 13:29:24;;;;;;;;;;;21.20;21.20;;;;;;5143561;27;19930;-60
2022/03/22 13:31:57;;;;;;;;;;;21.30;21.30;;;;;;5143268;27;20000;-60
2022/03/22 13:34:23;;;;;;;;;;;21.20;21.20;;;;;;5129984;27;19923;-61
2022/03/22 13:36:49;;;;;;;;;;;21.20;21.10;;;;;;5142080;27;19927;-56
2022/03/22 13:39:22;;;;;;;;;;;21.30;21.40;;;;;;5141198;27;20301;-58
2022/03/22 13:41:47;;;;;;;;;;;21.20;21.50;;;;;;5148620;27;19927;-60
2022/03/22 13:44:13;;;;;;;;;;;21.20;21.40;;;;;;5143263;27;20286;-60
2022/03/22 13:46:39;;;;;;;;;;;21.30;21.40;;;;;;5129891;27;20451;-58
2022/03/22 13:49:05;;;;;;;;;;;21.30;21.10;;;;;;5124449;27;20374;-59
2022/03/22 13:51:34;;;;;;;;;;;21.30;20.90;;;;;;5124782;27;20387;-58
2022/03/22 13:54:08;;;;;;;;;;;21.30;20.70;;;;;;5148430;27;20386;-58
2022/03/22 13:56:34;;;;;;;;;;;21.30;20.70;;;;;;5138848;27;19934;-59
2022/03/22 13:59:00;;;;;;;;;;;21.30;20.90;;;;;;5141265;27;20231;-58
2022/03/22 14:01:26;;;;;;;;;;;21.30;21.10;;;;;;5129108;27;19979;-61
2022/03/22 14:03:52;;;;;;;;;;;21.30;20.90;;;;;;5142556;27;19930;-58
2022/03/22 14:06:17;;;;;;;;;;;21.40;20.40;;;;;;5146166;27;19927;-54
2022/03/22 14:08:43;;;;;;;;;;;21.40;20.20;;;;;;5145021;27;20366;-55
2022/03/22 14:11:09;;;;;;;;;;;21.30;20.40;;;;;;5142889;27;19931;-56
2022/03/22 14:13:35;;;;;;;;;;;21.30;20.60;;;;;;5147394;27;19927;-60
2022/03/22 14:16:01;;;;;;;;;;;21.30;20.70;;;;;;5101911;27;19956;-60
2022/03/22 14:18:27;;;;;;;;;;;21.30;21.00;;;;;;5124179;27;20413;-59
2022/03/22 14:20:53;;;;;;;;;;;21.30;21.00;;;;;;5148019;27;19930;-58
2022/03/22 14:23:19;;;;;;;;;;;21.30;20.90;;;;;;5142466;27;19930;-60
2022/03/22 14:25:45;;;;;;;;;;;21.30;21.00;;;;;;5143330;27;20370;-56
2022/03/22 14:28:11;;;;;;;;;;;21.40;21.10;;;;;;5147536;27;19969;-56
2022/03/22 14:30:38;;;;;;;;;;;21.40;21.10;;;;;;5142248;27;20294;-58
2022/03/22 14:33:08;;;;;;;;;;;21.30;21.00;;;;;;5144799;27;20382;-57
2022/03/22 14:38:16;;;;;;;;;;;21.40;21.10;;;;;;5142543;27;19950;-60
2022/03/22 14:40:42;;;;;;;;;;;21.40;21.20;;;;;;5148075;27;20057;-58
2022/03/22 14:43:11;;;;;;;;;;;21.40;21.40;;;;;;5142352;27;20389;-61
2022/03/22 14:45:37;;;;;;;;;;;21.30;21.60;;;;;;5142336;27;20056;-60
2022/03/22 14:48:03;;;;;;;;;;;21.50;21.40;;;;;;5147602;27;20297;-60
2022/03/22 14:50:29;;;;;;;;;;;21.50;21.60;;;;;;5141350;27;19923;-58